In Rescue
 
Open Full Screen Window  High Contrast Mode
Wind Gusting 23 knots
14
April 20, 2024 10:39 AM EDT
Weather Information
Wind Direction
  270 °
Wind Speed
  14 kt (16 mph)
Wind Gust
  23 kt (26 mph)
Altimeter
30.07 in
Visibility
10 SM
Temperature
08° C
46° F
Dewpoint
-07° C
19° F
Humidity
34%
Sky Condition
Scattered @ 5,000 ft
VFR

METAR KPOV 201439Z AUTO 27014G23KT 10SM SCT050 08/M07 A3007 RMK AO2 T00781069 PWINO

FAA Disclaimer: The data displayed is for advisory purposes only and is not to be used for flight planning or operations.